Time;durP1;ratioP1;P1;durP2;ratioP2;P2;SDS_P1;SDS_P2;PMS_P1;PMS_P2;Temp;Humidity;BMP_temperature;BMP_pressure;BME280_temperature;BME280_humidity;BME280_pressure;Samples;Min_cycle;Max_cycle;Signal;HPM_P1;HPM_P2
2022/06/16 00:00:29;;;;;;;6.77;3.73;;;21.10;98.30;;;21.41;47.76;101292.91;4986828;28;97504;-71
2022/06/16 00:02:54;;;;;;;7.43;3.80;;;21.20;97.60;;;21.43;47.80;101296.34;4964206;28;99919;-73
2022/06/16 00:05:26;;;;;;;7.07;3.90;;;21.30;97.10;;;21.42;48.26;101300.00;4984535;28;96918;-73
2022/06/16 00:07:52;;;;;;;6.20;3.60;;;21.20;98.30;;;21.42;48.22;101293.78;4972533;28;96904;-73
2022/06/16 00:10:20;;;;;;;5.33;3.70;;;21.20;98.20;;;21.42;48.10;101281.22;4977965;27;99474;-73
2022/06/16 00:12:46;;;;;;;5.13;3.73;;;21.20;98.10;;;21.43;47.98;101276.69;4994494;28;97424;-73
2022/06/16 00:15:17;;;;;;;3.67;3.30;;;21.20;98.10;;;21.39;47.80;101276.91;4973682;27;99352;-73
2022/06/16 00:17:43;;;;;;;8.60;3.53;;;21.20;98.00;;;21.39;47.69;101278.72;4996580;27;98713;-73
2022/06/16 00:20:11;;;;;;;5.23;3.57;;;21.10;97.60;;;21.40;47.11;101280.44;4983363;27;99709;-73
2022/06/16 00:22:37;;;;;;;6.80;3.63;;;21.20;97.60;;;21.39;47.80;101289.44;5000366;27;99468;-73
2022/06/16 00:25:05;;;;;;;8.90;4.07;;;21.20;98.00;;;21.38;47.73;101283.22;4987814;27;97702;-73
2022/06/16 00:27:32;;;;;;;6.90;3.50;;;21.10;98.10;;;21.39;48.19;101294.81;4995200;27;97088;-73
2022/06/16 00:29:58;;;;;;;4.13;3.20;;;21.10;98.40;;;21.39;48.89;101301.03;4991589;27;104673;-73
2022/06/16 00:32:24;;;;;;;5.37;3.63;;;21.20;98.80;;;21.39;48.38;101294.81;4991650;28;102888;-73
2022/06/16 00:34:50;;;;;;;6.13;3.30;;;21.20;98.40;;;21.39;48.97;101294.81;5007771;27;97214;-73
2022/06/16 00:37:16;;;;;;;7.47;3.47;;;21.20;98.50;;;21.38;48.37;101295.78;4988635;27;96970;-73
2022/06/16 00:39:42;;;;;;;5.23;3.50;;;21.20;98.40;;;21.35;48.09;101293.34;4994912;27;97578;-73
2022/06/16 00:42:21;;;;;;;8.63;4.40;;;21.10;98.30;;;21.36;48.69;101301.28;4975086;27;98600;-73
2022/06/16 00:44:51;;;;;;;6.27;4.17;;;21.10;98.70;;;21.33;48.54;101300.63;4991241;28;96838;-73
2022/06/16 00:47:24;;;;;;;5.13;3.47;;;21.10;98.50;;;21.34;48.60;101305.88;4987038;27;96898;-73
2022/06/16 00:49:54;;;;;;;6.13;3.70;;;21.10;98.70;;;21.34;49.15;101302.34;4991501;28;98446;-73
2022/06/16 00:52:31;;;;;;;5.40;3.53;;;21.10;98.90;;;21.33;48.73;101295.28;4987052;27;97266;-73
2022/06/16 00:55:05;;;;;;;8.03;3.30;;;21.10;98.60;;;21.29;49.55;101288.41;4991330;27;97173;-73
2022/06/16 00:57:38;;;;;;;11.53;4.00;;;21.10;99.20;;;21.26;49.34;101296.66;4987618;28;96869;-73
2022/06/16 01:03:02;;;;;;;5.13;3.47;;;21.00;98.80;;;21.20;49.91;101299.75;4977590;27;98102;-73
2022/06/16 01:05:28;;;;;;;6.67;4.10;;;20.90;99.20;;;21.19;49.66;101298.03;4989483;28;98991;-73
2022/06/16 01:07:56;;;;;;;5.67;3.63;;;20.90;99.10;;;21.17;49.90;101308.00;4990272;27;107845;-73
2022/06/16 01:10:24;;;;;;;5.47;3.83;;;20.90;99.50;;;21.14;50.14;101302.88;4986337;28;98147;-73
2022/06/16 01:16:24;;;;;;;6.20;3.70;;;20.90;99.80;;;21.12;49.38;101313.72;4987985;27;96931;-73
2022/06/16 01:19:21;;;;;;;5.97;3.50;;;20.80;99.40;;;21.05;49.58;101324.00;4985656;28;97957;-73
2022/06/16 01:22:00;;;;;;;8.07;3.97;;;20.80;99.40;;;21.01;49.46;101317.13;4963137;28;101079;-73
2022/06/16 01:25:08;;;;;;;7.50;3.83;;;20.80;99.50;;;20.99;49.63;101328.94;4974883;28;100234;-73
2022/06/16 01:27:59;;;;;;;5.33;3.80;;;20.70;99.50;;;20.93;50.03;101332.88;4975857;28;97490;-73
2022/06/16 01:31:23;;;;;;;6.37;3.93;;;20.60;99.90;;;21.00;49.76;101341.38;4985434;27;98373;-73
2022/06/16 01:33:54;;;;;;;6.80;3.93;;;20.70;99.30;;;20.98;49.65;101332.56;4982865;28;101638;-73
2022/06/16 01:36:52;;;;;;;9.00;4.00;;;20.70;99.60;;;20.98;49.17;101333.44;4986280;27;97587;-73
2022/06/16 01:39:34;;;;;;;6.17;4.17;;;20.70;99.30;;;20.97;50.00;101333.50;4971349;27;96962;-73
2022/06/16 01:42:13;;;;;;;8.40;4.03;;;20.70;99.70;;;20.93;49.74;101330.19;4988419;27;97002;-74
2022/06/16 01:44:47;;;;;;;7.90;3.67;;;20.70;99.70;;;20.92;49.65;101328.47;4991215;28;100440;-73
2022/06/16 01:47:18;;;;;;;9.90;4.30;;;20.70;99.60;;;20.90;49.81;101338.44;4987019;27;96962;-73
2022/06/16 01:49:54;;;;;;;7.53;4.30;;;20.60;99.80;;;20.92;49.67;101338.34;4993042;27;97506;-73
2022/06/16 01:52:36;;;;;;;5.43;3.63;;;20.60;99.50;;;20.94;50.25;101342.63;4984729;28;97586;-73
2022/06/16 01:55:12;;;;;;;7.53;4.20;;;20.60;99.80;;;20.89;49.97;101344.78;4986119;28;97268;-73
2022/06/16 01:57:42;;;;;;;6.50;4.50;;;20.60;99.90;;;20.87;49.97;101335.97;4992237;27;97312;-73
2022/06/16 02:00:12;;;;;;;4.50;4.00;;;20.60;99.90;;;20.84;49.89;101341.56;4990677;27;97202;-73
2022/06/16 02:02:40;;;;;;;5.43;4.10;;;20.60;99.80;;;20.82;49.79;101332.72;4994038;28;101666;-73
2022/06/16 02:05:53;;;;;;;8.37;4.80;;;20.50;99.60;;;20.82;50.05;101343.47;4986790;28;97362;-73
2022/06/16 02:08:26;;;;;;;7.97;4.20;;;20.50;99.90;;;20.79;49.64;101355.25;4978553;28;100331;-73
2022/06/16 02:11:08;;;;;;;6.33;4.20;;;20.50;99.80;;;20.78;49.73;101350.00;4983410;28;97444;-73
2022/06/16 02:13:44;;;;;;;6.40;4.47;;;20.50;99.80;;;20.80;50.31;101345.38;4990255;28;97838;-73
2022/06/16 02:16:25;;;;;;;6.53;5.03;;;20.50;99.90;;;20.75;49.63;101352.88;4980450;28;96861;-73
2022/06/16 02:18:54;;;;;;;6.67;4.23;;;20.40;99.70;;;20.72;50.16;101347.75;4996042;28;97531;-73
2022/06/16 02:21:43;;;;;;;5.40;4.10;;;20.40;99.90;;;20.73;50.55;101352.13;4989649;28;96826;-72
2022/06/16 02:24:13;;;;;;;6.97;3.93;;;20.40;99.90;;;20.68;50.00;101356.94;4972030;28;97445;-73
2022/06/16 02:26:40;;;;;;;7.60;4.30;;;20.40;99.90;;;20.64;50.04;101355.44;4990112;28;97464;-73
2022/06/16 02:29:37;;;;;;;6.70;3.97;;;20.30;99.90;;;20.67;49.87;101365.94;4984514;28;98484;-73
2022/06/16 02:32:39;;;;;;;5.87;3.83;;;20.30;99.90;;;20.67;50.46;101372.16;4983022;27;96712;-73
2022/06/16 02:35:30;;;;;;;5.03;4.40;;;20.30;99.90;;;20.66;49.76;101374.94;4988420;28;96843;-73
2022/06/16 02:38:20;;;;;;;7.03;4.30;;;20.30;99.80;;;20.65;50.41;101367.88;4996076;27;97475;-73
2022/06/16 02:41:13;;;;;;;8.50;4.90;;;20.30;99.90;;;20.60;50.39;101367.31;4991810;28;101412;-73
2022/06/16 02:44:05;;;;;;;7.40;4.43;;;20.30;99.90;;;20.54;50.26;101365.03;4993324;28;97441;-73
2022/06/16 02:46:57;;;;;;;5.50;5.00;;;20.20;99.90;;;20.49;50.60;101371.56;4982633;28;97272;-72
2022/06/16 02:49:55;;;;;;;5.83;5.23;;;20.10;99.90;;;20.46;50.41;101371.75;4985122;28;98971;-73
2022/06/16 02:52:31;;;;;;;6.17;4.90;;;20.10;99.90;;;20.43;50.88;101363.94;4971439;28;99844;-72
2022/06/16 02:55:04;;;;;;;6.47;4.30;;;20.10;99.90;;;20.42;50.27;101364.91;4993561;28;97966;-73
2022/06/16 02:57:52;;;;;;;7.07;4.60;;;20.00;99.90;;;20.40;50.24;101364.13;4974966;27;97281;-73
2022/06/16 03:00:25;;;;;;;6.80;4.23;;;20.10;99.90;;;20.38;50.21;101366.00;4967766;27;97079;-73
2022/06/16 03:02:51;;;;;;;5.60;3.90;;;20.10;99.90;;;20.38;50.20;101368.69;4982685;28;96724;-72
2022/06/16 03:05:17;;;;;;;7.27;4.43;;;20.10;99.90;;;20.39;49.81;101367.72;4982724;28;96923;-72
2022/06/16 03:07:44;;;;;;;9.43;4.70;;;20.10;99.90;;;20.36;50.77;101362.56;4983351;28;96836;-73
2022/06/16 03:10:14;;;;;;;5.10;4.10;;;20.00;99.90;;;20.33;49.50;101367.28;4989406;28;97190;-72
2022/06/16 03:12:40;;;;;;;5.57;4.03;;;20.00;99.80;;;20.28;50.83;101364.91;4994124;28;97239;-73
2022/06/16 03:15:07;;;;;;;7.17;4.30;;;19.90;99.90;;;20.21;50.49;101364.44;4988539;28;97048;-73
2022/06/16 03:17:32;;;;;;;7.33;4.50;;;19.80;99.90;;;20.20;50.27;101372.56;4986493;27;97217;-73
2022/06/16 03:20:01;;;;;;;5.90;4.30;;;19.80;99.90;;;20.21;50.23;101375.16;4994683;28;97459;-73
2022/06/16 03:22:27;;;;;;;6.10;4.00;;;19.80;99.90;;;20.18;49.51;101390.56;4990077;28;101120;-73
2022/06/16 03:24:53;;;;;;;6.43;3.93;;;19.80;99.80;;;20.16;49.25;101392.47;4993191;28;98800;-72
2022/06/16 03:27:18;;;;;;;6.20;3.90;;;19.80;99.70;;;20.13;50.96;101388.19;4980638;28;98895;-73
2022/06/16 03:29:44;;;;;;;4.67;4.10;;;19.80;99.90;;;20.12;50.36;101385.59;4994904;27;97440;-73
2022/06/16 03:32:10;;;;;;;8.93;4.30;;;19.70;99.90;;;20.08;50.46;101384.06;4984273;28;104925;-73
2022/06/16 03:34:36;;;;;;;7.40;4.27;;;19.70;99.90;;;20.05;50.40;101384.28;4986819;28;112557;-73
2022/06/16 03:37:02;;;;;;;7.17;4.70;;;19.70;99.90;;;20.03;50.17;101391.53;4975109;28;97542;-73
2022/06/16 03:39:28;;;;;;;7.37;5.07;;;19.60;99.90;;;20.01;49.91;101398.81;4995566;28;97018;-73
2022/06/16 03:41:53;;;;;;;8.07;4.50;;;19.60;99.90;;;20.00;49.57;101391.75;4995494;28;98177;-72
2022/06/16 03:44:19;;;;;;;8.77;4.90;;;19.60;99.80;;;19.98;49.64;101397.19;4991391;28;101342;-72
2022/06/16 03:46:45;;;;;;;6.10;4.73;;;19.60;99.90;;;19.97;49.55;101402.66;4996377;28;97328;-72
2022/06/16 03:49:11;;;;;;;6.20;4.83;;;19.60;99.80;;;19.97;49.78;101418.72;4987439;28;96994;-72
2022/06/16 03:51:37;;;;;;;6.77;4.23;;;19.60;99.90;;;19.89;49.69;101428.06;4989160;28;98129;-72
2022/06/16 03:54:03;;;;;;;7.13;4.80;;;19.50;99.90;;;19.88;50.69;101422.81;4987323;28;97088;-73
2022/06/16 03:56:29;;;;;;;5.73;4.37;;;19.50;99.90;;;19.87;50.79;101427.31;4962784;28;97440;-72
2022/06/16 03:58:56;;;;;;;6.70;4.60;;;19.50;99.90;;;19.89;51.21;101433.44;5006920;27;98605;-73
2022/06/16 04:01:24;;;;;;;5.67;4.13;;;19.50;99.90;;;19.86;50.34;101422.06;4980455;28;96726;-72
2022/06/16 04:03:59;;;;;;;6.93;4.70;;;19.50;99.90;;;19.85;50.52;101421.19;4992055;27;96614;-72
2022/06/16 04:06:29;;;;;;;6.63;4.10;;;19.50;99.90;;;19.86;50.78;101427.41;4986045;28;96730;-72
2022/06/16 04:08:55;;;;;;;7.20;4.53;;;19.50;99.90;;;19.84;50.70;101435.53;4997493;28;97018;-71
2022/06/16 04:11:28;;;;;;;7.50;4.33;;;19.50;99.90;;;19.83;50.60;101433.81;4982894;28;96992;-72
2022/06/16 04:13:57;;;;;;;8.10;4.37;;;19.50;99.90;;;19.82;50.38;101434.78;4981915;28;97398;-72
2022/06/16 04:16:23;;;;;;;6.80;4.37;;;19.40;99.90;;;19.78;50.30;101430.56;4985260;28;97564;-72
2022/06/16 04:18:49;;;;;;;7.33;4.47;;;19.40;99.90;;;19.79;51.36;101437.63;4993426;28;97724;-73
2022/06/16 04:21:15;;;;;;;7.23;4.70;;;19.40;99.90;;;19.85;51.63;101453.34;4983731;28;97833;-72
2022/06/16 04:23:41;;;;;;;6.23;4.73;;;19.40;99.90;;;19.92;52.38;101460.00;4980759;28;96952;-73
2022/06/16 04:26:07;;;;;;;8.60;5.03;;;19.50;99.90;;;19.90;50.51;101461.94;4979983;28;96971;-73
2022/06/16 04:28:33;;;;;;;8.47;4.83;;;19.60;99.90;;;19.85;50.78;101458.69;4984512;28;98754;-72
2022/06/16 04:30:59;;;;;;;5.63;4.30;;;19.50;99.90;;;19.82;50.44;101458.88;4989636;28;97794;-73
2022/06/16 04:33:26;;;;;;;9.43;4.63;;;19.50;99.90;;;19.82;51.05;101458.03;4991887;28;97385;-72
2022/06/16 04:35:52;;;;;;;7.80;4.57;;;19.40;99.90;;;19.84;50.61;101465.00;4984497;28;96758;-73
2022/06/16 04:38:19;;;;;;;6.07;4.37;;;19.40;99.90;;;19.81;50.87;101462.47;4990085;28;99034;-72
2022/06/16 04:40:45;;;;;;;6.77;4.90;;;19.40;99.90;;;19.77;50.11;101460.97;4996473;28;97260;-73
2022/06/16 04:43:14;;;;;;;6.30;4.93;;;19.40;99.90;;;19.75;51.03;101465.56;4986205;28;97162;-73
2022/06/16 04:45:41;;;;;;;7.20;4.53;;;19.40;99.90;;;19.73;50.61;101467.47;4990914;28;96801;-72
2022/06/16 04:48:08;;;;;;;6.03;4.13;;;19.40;99.90;;;19.71;50.15;101472.06;4979446;28;97375;-73
2022/06/16 04:50:35;;;;;;;8.43;4.97;;;19.30;99.90;;;19.81;49.79;101470.50;4986810;28;98149;-73
2022/06/16 04:53:01;;;;;;;6.80;4.53;;;19.40;99.90;;;19.83;49.83;101471.31;4982667;28;97106;-73
2022/06/16 04:55:27;;;;;;;8.20;4.53;;;19.50;99.90;;;19.82;50.51;101468.72;4982483;28;102030;-73
2022/06/16 04:57:54;;;;;;;8.47;4.13;;;19.50;99.90;;;19.97;52.61;101477.63;4995935;28;98143;-72
2022/06/16 05:00:21;;;;;;;7.33;4.93;;;19.60;99.90;;;19.98;49.94;101469.50;4987372;28;100272;-73
2022/06/16 05:02:47;;;;;;;6.37;4.20;;;19.70;99.90;;;19.95;51.22;101476.84;4983269;28;97554;-72
2022/06/16 05:05:13;;;;;;;5.63;4.43;;;19.60;99.90;;;19.95;51.21;101482.19;4986876;27;97343;-73
2022/06/16 05:07:40;;;;;;;6.77;3.80;;;19.50;99.90;;;19.95;50.88;101491.09;4985040;28;97178;-73
2022/06/16 05:10:07;;;;;;;7.80;4.43;;;19.60;99.90;;;19.93;51.42;101487.63;4991240;28;98094;-73
2022/06/16 05:12:33;;;;;;;5.97;3.70;;;19.60;99.90;;;19.94;51.15;101493.84;4983545;28;103490;-72
2022/06/16 05:14:59;;;;;;;5.43;3.40;;;19.60;99.90;;;19.94;51.45;101493.84;4986632;28;97160;-73
2022/06/16 05:17:25;;;;;;;6.87;4.10;;;19.60;99.90;;;19.91;50.14;101494.91;4994759;27;97039;-73
2022/06/16 05:19:51;;;;;;;6.67;4.27;;;19.60;99.90;;;19.94;49.64;101501.91;4988410;28;98313;-72
2022/06/16 05:22:18;;;;;;;7.43;4.37;;;19.60;99.90;;;19.92;50.30;101502.00;4986437;28;96945;-73
2022/06/16 05:24:43;;;;;;;7.00;4.20;;;19.60;99.90;;;19.94;50.36;101509.91;4984671;28;97084;-73
2022/06/16 05:27:09;;;;;;;6.43;4.20;;;19.60;99.90;;;19.91;51.06;101522.56;4991277;28;99225;-73
2022/06/16 05:29:35;;;;;;;5.93;3.93;;;19.60;99.90;;;19.97;49.83;101513.28;4994768;28;97166;-75
2022/06/16 05:32:01;;;;;;;6.67;4.13;;;19.60;99.90;;;20.03;49.71;101512.03;4989047;28;96826;-73
2022/06/16 05:34:27;;;;;;;5.77;3.83;;;19.70;99.90;;;20.03;48.46;101525.44;4990943;28;98440;-72
2022/06/16 05:36:52;;;;;;;4.13;3.60;;;19.70;99.10;;;20.07;49.48;101527.81;4992914;28;97338;-72
2022/06/16 05:39:18;;;;;;;4.13;3.47;;;19.70;99.20;;;20.18;52.24;101529.84;4988424;28;97089;-73
2022/06/16 05:41:46;;;;;;;4.30;3.07;;;19.80;99.90;;;20.32;52.00;101537.03;4987912;28;96958;-74
2022/06/16 05:44:12;;;;;;;3.00;2.70;;;20.10;99.90;;;20.38;51.74;101542.84;4981688;28;96691;-73
2022/06/16 05:46:40;;;;;;;3.50;2.43;;;20.20;99.90;;;20.52;51.33;101557.22;4992024;28;97455;-73
2022/06/16 05:49:06;;;;;;;5.27;3.27;;;20.30;99.90;;;20.61;50.99;101548.63;4989769;28;97880;-73
2022/06/16 05:51:32;;;;;;;6.70;2.80;;;20.40;99.90;;;20.73;50.96;101550.53;4995858;27;97209;-73
2022/06/16 05:53:58;;;;;;;2.23;1.90;;;20.60;99.90;;;20.77;51.03;101544.84;4999251;28;96769;-74
2022/06/16 05:56:24;;;;;;;2.57;2.37;;;20.70;99.90;;;20.88;50.90;101541.50;4989942;28;112413;-73
2022/06/16 05:58:50;;;;;;;4.37;2.60;;;20.80;99.90;;;20.99;50.52;101541.66;4996883;28;97028;-73
2022/06/16 06:01:16;;;;;;;4.77;3.13;;;20.90;99.80;;;21.02;45.05;101543.28;4986288;28;96707;-73
2022/06/16 06:03:43;;;;;;;3.43;2.70;;;20.90;96.40;;;21.09;49.90;101549.94;4992320;28;97101;-73
2022/06/16 06:06:09;;;;;;;2.20;2.00;;;21.00;99.40;;;21.14;50.09;101542.47;4970857;28;98407;-73
2022/06/16 06:17:05;;;;;;;3.03;2.43;;;21.10;98.00;;;21.24;49.59;101553.44;4980145;27;97623;-73
2022/06/16 06:19:31;;;;;;;3.57;2.77;;;21.10;99.40;;;21.27;48.76;101556.84;5008635;27;97552;-73
2022/06/16 06:22:13;;;;;;;4.83;2.80;;;21.20;98.00;;;21.30;48.35;101559.31;4994990;28;96905;-73
2022/06/16 06:24:55;;;;;;;4.57;3.30;;;21.10;97.30;;;21.29;48.36;101562.09;4993937;28;101161;-73
2022/06/16 06:27:29;;;;;;;6.97;3.50;;;21.10;97.70;;;21.29;47.40;101562.09;4981692;28;97960;-73
2022/06/16 06:29:55;;;;;;;5.43;2.90;;;21.10;97.20;;;21.27;49.08;101577.44;4962329;28;97362;-73
2022/06/16 06:32:23;;;;;;;2.43;2.23;;;21.10;98.70;;;21.30;49.64;101575.41;4961885;28;96840;-73
2022/06/16 06:34:50;;;;;;;7.10;2.73;;;21.20;99.30;;;21.30;46.18;101578.09;4992380;28;96898;-73
2022/06/16 06:37:21;;;;;;;4.27;2.33;;;21.20;97.00;;;21.29;48.78;101573.69;4992344;28;97359;-73
2022/06/16 06:39:48;;;;;;;5.50;3.00;;;21.10;97.80;;;21.30;48.87;101579.91;4993743;28;96694;-73
2022/06/16 06:42:14;;;;;;;2.97;2.07;;;21.10;98.30;;;21.30;49.43;101569.19;4982838;28;99427;-74
2022/06/16 06:44:40;;;;;;;5.60;3.50;;;21.10;99.00;;;21.29;44.10;101578.19;4985599;28;96962;-73
2022/06/16 06:47:06;;;;;;;6.17;3.67;;;21.10;95.40;;;21.29;44.91;101583.56;4999195;27;117503;-73
2022/06/16 06:49:32;;;;;;;4.07;3.13;;;21.10;96.20;;;21.30;47.27;101587.97;4986948;28;99711;-73
2022/06/16 06:51:58;;;;;;;5.40;3.10;;;21.10;96.90;;;21.28;49.08;101590.75;4982202;28;97378;-73
2022/06/16 06:54:24;;;;;;;3.47;3.17;;;21.10;98.80;;;21.30;48.29;101596.88;4990922;28;98153;-73
2022/06/16 06:56:51;;;;;;;6.73;3.20;;;21.20;98.00;;;21.30;45.58;101590.66;4984677;28;96973;-73
2022/06/16 06:59:19;;;;;;;5.50;3.20;;;21.10;96.50;;;21.28;48.21;101597.94;4988715;28;97038;-73
2022/06/16 07:01:49;;;;;;;5.37;2.50;;;21.10;97.70;;;21.31;49.39;101593.22;4989312;28;96603;-73
2022/06/16 07:04:17;;;;;;;2.93;2.40;;;21.20;99.10;;;21.31;48.84;101598.59;4962761;27;98691;-73
2022/06/16 07:06:45;;;;;;;2.27;2.07;;;21.20;98.50;;;21.35;49.18;101594.72;4986613;28;97202;-73
2022/06/16 07:09:12;;;;;;;2.63;2.37;;;21.30;98.90;;;21.42;48.93;101611.31;4984026;27;98005;-73
2022/06/16 07:11:42;;;;;;;4.87;3.33;;;21.30;98.60;;;21.42;44.44;101605.94;4985461;28;96571;-73
2022/06/16 07:14:09;;;;;;;7.83;3.50;;;21.30;95.50;;;21.43;48.55;101613.03;4982440;28;96879;-73
2022/06/16 07:16:36;;;;;;;3.33;2.10;;;21.30;98.20;;;21.45;48.09;101615.59;4984344;28;98459;-73
2022/06/16 07:19:02;;;;;;;6.07;3.17;;;21.30;97.70;;;21.43;47.38;101621.09;4978201;28;97262;-73
2022/06/16 07:21:29;;;;;;;5.17;3.40;;;21.30;97.20;;;21.44;47.52;101617.44;4984442;28;98767;-73
2022/06/16 07:23:55;;;;;;;5.77;3.40;;;21.30;97.00;;;21.46;46.41;101622.69;4987327;28;97577;-73
2022/06/16 07:26:22;;;;;;;5.30;3.50;;;21.30;96.30;;;21.46;45.27;101623.56;4982879;28;97719;-73
2022/06/16 07:28:48;;;;;;;7.03;3.30;;;21.30;96.10;;;21.46;44.60;101623.56;4987393;28;98399;-73
2022/06/16 07:31:15;;;;;;;4.90;2.93;;;21.30;95.80;;;21.49;46.39;101630.53;4980027;28;98163;-73
2022/06/16 07:33:41;;;;;;;3.60;2.47;;;21.40;96.00;;;21.48;48.15;101621.63;4991111;28;97385;-73
2022/06/16 07:36:10;;;;;;;3.87;2.93;;;21.40;97.90;;;21.47;45.23;101622.59;4977246;27;97011;-73
2022/06/16 07:38:36;;;;;;;5.37;2.90;;;21.40;96.30;;;21.50;44.33;101627.75;4985537;28;97498;-73
2022/06/16 07:43:47;;;;;;;3.63;2.53;;;21.40;95.40;;;21.45;48.73;101629.88;4984791;28;96859;-73
2022/06/16 07:46:13;;;;;;;2.57;2.10;;;21.40;98.30;;;21.49;48.31;101631.41;4982869;27;96894;-72
2022/06/16 07:48:39;;;;;;;2.50;2.20;;;21.40;98.10;;;21.52;48.13;101636.56;4993956;28;97513;-73
2022/06/16 07:51:05;;;;;;;4.03;2.40;;;21.50;98.00;;;21.54;45.87;101636.47;4986737;28;97296;-73
2022/06/16 07:53:31;;;;;;;5.23;2.70;;;21.50;96.50;;;21.55;45.38;101644.41;4961453;28;96961;-73
2022/06/16 07:56:00;;;;;;;3.83;2.90;;;21.50;96.40;;;21.57;46.90;101642.50;4985888;28;97463;-74
2022/06/16 07:58:31;;;;;;;3.23;2.53;;;21.50;97.00;;;21.60;46.41;101647.66;4939706;28;99601;-73
2022/06/16 08:00:58;;;;;;;4.17;3.10;;;21.50;96.30;;;21.61;47.75;101654.75;4984713;28;97136;-73
2022/06/16 08:03:27;;;;;;;3.30;2.20;;;21.60;97.20;;;21.60;47.07;101655.72;4991068;28;96527;-73
2022/06/16 08:05:55;;;;;;;4.73;3.23;;;21.60;97.30;;;21.60;45.39;101655.72;4987348;28;97678;-73
2022/06/16 08:08:23;;;;;;;3.10;2.60;;;21.60;95.90;;;21.62;46.61;101651.09;4980435;28;97665;-73
2022/06/16 08:10:51;;;;;;;7.50;3.80;;;21.60;96.50;;;21.62;45.36;101651.09;4977814;28;98013;-73
2022/06/16 08:13:17;;;;;;;8.07;4.03;;;21.60;95.80;;;21.64;44.79;101665.28;4976402;28;96973;-72
2022/06/16 08:15:45;;;;;;;5.80;3.47;;;21.60;95.60;;;21.65;44.18;101656.25;4978899;28;97453;-72
2022/06/16 08:18:16;;;;;;;8.57;3.70;;;21.60;94.90;;;21.64;46.51;101651.84;4968570;28;99416;-72
2022/06/16 08:20:43;;;;;;;2.83;2.50;;;21.60;96.00;;;21.65;46.60;101656.25;4983695;28;96850;-72
2022/06/16 08:23:09;;;;;;;4.17;2.83;;;21.60;96.60;;;21.64;45.18;101659.91;4987440;28;99335;-72
2022/06/16 08:25:42;;;;;;;4.07;2.50;;;21.60;96.00;;;21.67;46.04;101658.84;4973946;28;98568;-73
2022/06/16 08:28:11;;;;;;;2.80;2.37;;;21.60;96.40;;;21.57;48.16;101668.50;4982979;28;97276;-73
2022/06/16 08:30:41;;;;;;;5.77;3.20;;;21.60;97.70;;;21.60;46.64;101668.28;4988501;28;97906;-72
2022/06/16 08:33:15;;;;;;;4.70;2.60;;;21.60;96.40;;;21.66;45.69;101674.09;4991716;28;96955;-74
2022/06/16 08:35:44;;;;;;;5.67;3.27;;;21.60;96.10;;;21.67;44.95;101680.31;4969945;28;99510;-74
2022/06/16 08:38:10;;;;;;;7.10;3.43;;;21.70;95.60;;;21.65;44.63;101676.88;4992493;28;99325;-74
2022/06/16 08:40:46;;;;;;;5.20;2.53;;;21.60;95.60;;;21.71;45.95;101676.50;4970724;28;96868;-72
2022/06/16 08:43:28;;;;;;;5.10;3.53;;;21.70;96.10;;;21.71;45.75;101686.38;4991495;28;96708;-72
2022/06/16 08:46:06;;;;;;;5.07;3.17;;;21.70;95.70;;;21.72;44.47;101688.09;4973887;28;99380;-72
2022/06/16 08:48:58;;;;;;;4.07;3.20;;;21.70;95.70;;;21.73;44.40;101695.19;4994439;28;102162;-72
2022/06/16 08:51:28;;;;;;;4.63;3.33;;;21.70;95.10;;;21.71;43.49;101683.69;4979943;28;97272;-72
2022/06/16 08:54:37;;;;;;;5.30;3.20;;;21.70;94.50;;;21.69;44.28;101695.38;5003569;27;102638;-74
2022/06/16 08:57:30;;;;;;;3.07;2.17;;;21.70;96.00;;;21.71;46.22;101691.75;4986194;28;101652;-73
2022/06/16 09:00:40;;;;;;;4.73;3.10;;;21.70;96.40;;;21.71;45.67;101694.44;4991326;28;98323;-73
2022/06/16 09:03:54;;;;;;;4.03;3.00;;;21.70;95.50;;;21.71;42.96;101694.44;4977633;28;97070;-72
2022/06/16 09:06:43;;;;;;;8.13;3.50;;;21.70;95.00;;;21.71;43.02;101692.59;4908913;28;97127;-72
2022/06/16 09:12:50;;;;;;;4.30;2.77;;;21.70;95.70;;;21.73;44.33;101690.69;4985556;28;97370;-72
2022/06/16 09:15:41;;;;;;;4.53;2.70;;;21.70;94.40;;;21.72;41.82;101685.41;4977368;28;97395;-73
2022/06/16 09:19:01;;;;;;;3.57;2.40;;;21.70;93.10;;;21.72;42.29;101693.47;4981681;28;96918;-72
2022/06/16 09:22:06;;;;;;;4.83;2.13;;;21.70;94.60;;;21.63;45.77;101703.84;4967794;28;100694;-73
2022/06/16 09:25:19;;;;;;;6.07;2.57;;;21.70;94.40;;;21.76;43.62;101703.03;4989468;28;103068;-72
2022/06/16 09:27:55;;;;;;;2.47;2.10;;;21.70;91.80;;;21.61;46.87;101711.13;4984573;27;97387;-72
2022/06/16 09:30:27;;;;;;;5.27;2.10;;;21.70;96.10;;;21.71;41.33;101718.59;4993517;28;97019;-72
2022/06/16 09:33:04;;;;;;;2.97;2.10;;;21.70;92.40;;;21.53;46.18;101720.63;4994016;28;97697;-73
2022/06/16 09:35:38;;;;;;;2.90;2.00;;;21.70;95.90;;;21.61;46.11;101735.28;4947485;28;103232;-72
2022/06/16 09:38:26;;;;;;;3.90;2.03;;;21.70;95.80;;;21.73;44.02;101733.63;4954560;28;97259;-72
2022/06/16 09:44:13;;;;;;;5.27;2.40;;;21.80;89.20;;;21.74;43.80;101739.88;4943720;28;101852;-72
2022/06/16 09:46:47;;;;;;;2.27;2.07;;;21.80;93.70;;;21.79;41.35;101759.22;4991680;28;101062;-72
2022/06/16 09:49:27;;;;;;;4.27;1.83;;;21.80;93.20;;;21.81;44.45;101757.28;4977938;28;97314;-72
2022/06/16 09:52:04;;;;;;;4.93;2.30;;;21.90;94.40;;;21.84;45.59;101751.72;4984859;28;97358;-72
2022/06/16 09:54:39;;;;;;;3.20;1.57;;;21.90;94.70;;;21.92;40.99;101765.50;4977621;28;101270;-72
2022/06/16 09:57:13;;;;;;;3.43;1.70;;;22.00;92.10;;;21.99;40.07;101764.16;4973102;28;98005;-72
2022/06/16 10:00:06;;;;;;;3.60;1.83;;;22.00;90.90;;;21.95;43.87;101766.16;4994455;28;97109;-73
2022/06/16 10:02:41;;;;;;;5.90;1.90;;;22.00;93.20;;;21.92;40.01;101770.88;4986186;28;97471;-73
2022/06/16 10:05:45;;;;;;;4.07;1.80;;;21.90;91.30;;;21.95;42.31;101774.22;4982353;28;99134;-72
2022/06/16 10:08:24;;;;;;;2.03;1.40;;;22.00;91.00;;;21.93;45.39;101778.84;4961100;28;97256;-73
2022/06/16 10:11:45;;;;;;;1.77;1.67;;;22.00;94.90;;;21.95;41.00;101776.06;4989919;28;97244;-72
2022/06/16 10:14:31;;;;;;;4.57;1.67;;;22.00;96.00;;;22.07;38.67;101780.66;4987135;28;100221;-72
2022/06/16 10:17:02;;;;;;;3.43;1.90;;;22.10;89.10;;;22.16;38.00;101774.69;4983888;28;98236;-72
2022/06/16 10:19:40;;;;;;;2.53;1.80;;;22.20;88.50;;;22.19;37.32;101785.22;4955620;28;104188;-74
2022/06/16 10:22:08;;;;;;;3.17;1.60;;;22.30;88.40;;;22.18;42.28;101778.13;4992748;28;97337;-74
2022/06/16 10:24:43;;;;;;;2.10;1.20;;;22.30;91.90;;;22.11;42.79;101792.91;4995288;28;97579;-74
2022/06/16 10:27:14;;;;;;;1.87;1.40;;;22.20;92.70;;;22.12;43.32;101788.41;4985517;28;97448;-74
2022/06/16 10:30:01;;;;;;;3.50;1.80;;;22.20;93.80;;;22.19;40.28;101790.59;4973770;28;98821;-74
2022/06/16 10:32:44;;;;;;;2.57;1.40;;;22.30;90.60;;;22.29;41.92;101800.75;4993417;28;97492;-74
2022/06/16 10:35:21;;;;;;;3.10;1.60;;;22.40;91.60;;;22.26;38.20;101802.63;4986657;28;96850;-74
2022/06/16 10:37:51;;;;;;;3.47;1.20;;;22.40;90.10;;;22.36;36.60;101802.03;4992188;28;97964;-74
2022/06/16 10:40:28;;;;;;;3.17;1.20;;;22.40;85.60;;;22.53;36.22;101799.94;4987713;28;99206;-74
2022/06/16 10:43:05;;;;;;;2.63;1.37;;;22.60;84.70;;;22.41;41.10;101803.44;4979268;28;98236;-74
2022/06/16 10:45:34;;;;;;;1.47;1.20;;;22.60;89.20;;;22.50;42.99;101805.50;4991005;28;97330;-74
2022/06/16 10:48:12;;;;;;;2.17;1.47;;;22.60;92.20;;;22.10;45.07;101804.63;4985931;28;97962;-74
2022/06/16 10:50:43;;;;;;;2.47;1.40;;;22.30;93.70;;;22.21;42.17;101807.47;4993032;28;97270;-73
2022/06/16 10:53:26;;;;;;;2.30;1.30;;;22.30;90.50;;;22.30;42.36;101807.84;4983234;28;96632;-73
2022/06/16 10:56:01;;;;;;;1.33;1.23;;;22.40;90.90;;;22.37;39.36;101799.25;5004404;28;97075;-73
2022/06/16 10:59:02;;;;;;;1.30;1.20;;;22.50;90.90;;;22.39;40.47;101801.81;4983066;28;101751;-74
2022/06/16 11:01:48;;;;;;;2.33;1.47;;;22.50;91.40;;;22.36;43.03;101796.66;4982838;28;99895;-73